sensor_id;sensor_type;location;lat;lon;timestamp;temperature;humidity
43581;DHT22;29175;51.030;4.606;2023-07-08T00:00:17;20.20;99.20
43581;DHT22;29175;51.030;4.606;2023-07-08T00:02:44;20.10;98.70
43581;DHT22;29175;51.030;4.606;2023-07-08T00:05:11;20.00;99.00
43581;DHT22;29175;51.030;4.606;2023-07-08T00:07:38;20.10;99.20
43581;DHT22;29175;51.030;4.606;2023-07-08T00:12:39;19.90;99.00
43581;DHT22;29175;51.030;4.606;2023-07-08T00:15:05;19.80;99.30
43581;DHT22;29175;51.030;4.606;2023-07-08T00:17:31;19.80;99.30
43581;DHT22;29175;51.030;4.606;2023-07-08T00:19:56;19.90;99.10
43581;DHT22;29175;51.030;4.606;2023-07-08T00:22:22;19.90;99.20
43581;DHT22;29175;51.030;4.606;2023-07-08T00:24:50;19.80;99.20
43581;DHT22;29175;51.030;4.606;2023-07-08T00:27:16;19.80;99.30
43581;DHT22;29175;51.030;4.606;2023-07-08T00:29:42;19.70;99.50
43581;DHT22;29175;51.030;4.606;2023-07-08T00:32:14;19.70;99.50
43581;DHT22;29175;51.030;4.606;2023-07-08T00:34:40;19.80;99.40
43581;DHT22;29175;51.030;4.606;2023-07-08T00:37:11;19.80;99.40
43581;DHT22;29175;51.030;4.606;2023-07-08T00:39:38;19.60;99.30
43581;DHT22;29175;51.030;4.606;2023-07-08T00:42:14;19.40;99.60
43581;DHT22;29175;51.030;4.606;2023-07-08T00:44:41;19.50;99.50
43581;DHT22;29175;51.030;4.606;2023-07-08T00:47:11;19.40;99.90
43581;DHT22;29175;51.030;4.606;2023-07-08T00:49:55;19.20;99.90
43581;DHT22;29175;51.030;4.606;2023-07-08T00:52:27;19.00;99.90
43581;DHT22;29175;51.030;4.606;2023-07-08T00:54:55;19.20;99.90
43581;DHT22;29175;51.030;4.606;2023-07-08T00:57:25;19.10;99.90
43581;DHT22;29175;51.030;4.606;2023-07-08T01:00:02;19.10;99.90
43581;DHT22;29175;51.030;4.606;2023-07-08T01:02:30;19.10;99.90
43581;DHT22;29175;51.030;4.606;2023-07-08T01:05:05;19.00;99.90
43581;DHT22;29175;51.030;4.606;2023-07-08T01:07:33;19.00;99.90
43581;DHT22;29175;51.030;4.606;2023-07-08T01:10:04;19.00;99.90
43581;DHT22;29175;51.030;4.606;2023-07-08T01:12:41;18.90;99.90
43581;DHT22;29175;51.030;4.606;2023-07-08T01:15:08;18.90;99.90
43581;DHT22;29175;51.030;4.606;2023-07-08T01:17:35;18.80;99.90
43581;DHT22;29175;51.030;4.606;2023-07-08T01:20:03;18.90;99.90
43581;DHT22;29175;51.030;4.606;2023-07-08T01:22:35;18.90;99.90
43581;DHT22;29175;51.030;4.606;2023-07-08T01:25:01;18.90;99.90
43581;DHT22;29175;51.030;4.606;2023-07-08T01:27:30;18.70;99.90
43581;DHT22;29175;51.030;4.606;2023-07-08T01:29:58;18.70;99.90
43581;DHT22;29175;51.030;4.606;2023-07-08T01:32:24;18.70;99.90
43581;DHT22;29175;51.030;4.606;2023-07-08T01:34:54;18.80;99.90
43581;DHT22;29175;51.030;4.606;2023-07-08T01:37:35;18.70;99.90
43581;DHT22;29175;51.030;4.606;2023-07-08T01:40:37;18.50;99.90
43581;DHT22;29175;51.030;4.606;2023-07-08T01:43:05;18.60;99.90
43581;DHT22;29175;51.030;4.606;2023-07-08T01:45:39;18.40;99.90
43581;DHT22;29175;51.030;4.606;2023-07-08T01:48:18;18.60;99.90
43581;DHT22;29175;51.030;4.606;2023-07-08T01:51:01;18.50;99.90
43581;DHT22;29175;51.030;4.606;2023-07-08T01:53:39;18.60;99.90
43581;DHT22;29175;51.030;4.606;2023-07-08T01:56:06;18.50;99.90
43581;DHT22;29175;51.030;4.606;2023-07-08T01:58:33;18.30;99.90
43581;DHT22;29175;51.030;4.606;2023-07-08T02:00:59;18.00;99.90
43581;DHT22;29175;51.030;4.606;2023-07-08T02:03:26;18.00;99.90
43581;DHT22;29175;51.030;4.606;2023-07-08T02:05:53;17.80;99.90
43581;DHT22;29175;51.030;4.606;2023-07-08T02:08:19;17.70;99.90
43581;DHT22;29175;51.030;4.606;2023-07-08T02:10:49;17.70;99.90
43581;DHT22;29175;51.030;4.606;2023-07-08T02:13:15;17.80;99.90
43581;DHT22;29175;51.030;4.606;2023-07-08T02:15:41;17.90;99.90
43581;DHT22;29175;51.030;4.606;2023-07-08T02:18:07;18.00;99.90
43581;DHT22;29175;51.030;4.606;2023-07-08T02:20:33;17.90;99.90
43581;DHT22;29175;51.030;4.606;2023-07-08T02:22:58;17.80;99.90
43581;DHT22;29175;51.030;4.606;2023-07-08T02:25:24;17.70;99.90
43581;DHT22;29175;51.030;4.606;2023-07-08T02:27:50;17.80;99.90
43581;DHT22;29175;51.030;4.606;2023-07-08T02:30:16;17.80;99.90
43581;DHT22;29175;51.030;4.606;2023-07-08T02:32:41;17.80;99.90
43581;DHT22;29175;51.030;4.606;2023-07-08T02:35:08;17.70;99.90
43581;DHT22;29175;51.030;4.606;2023-07-08T02:37:35;17.80;99.90
43581;DHT22;29175;51.030;4.606;2023-07-08T02:40:01;18.00;99.90
43581;DHT22;29175;51.030;4.606;2023-07-08T02:42:27;18.00;99.90
43581;DHT22;29175;51.030;4.606;2023-07-08T02:44:52;17.80;99.90
43581;DHT22;29175;51.030;4.606;2023-07-08T02:47:18;17.90;99.90
43581;DHT22;29175;51.030;4.606;2023-07-08T02:49:44;17.70;99.90
43581;DHT22;29175;51.030;4.606;2023-07-08T02:52:11;17.60;99.90
43581;DHT22;29175;51.030;4.606;2023-07-08T02:54:37;17.60;99.90
43581;DHT22;29175;51.030;4.606;2023-07-08T02:57:03;17.60;99.90
43581;DHT22;29175;51.030;4.606;2023-07-08T02:59:28;17.50;99.90
43581;DHT22;29175;51.030;4.606;2023-07-08T03:01:54;17.30;99.90
43581;DHT22;29175;51.030;4.606;2023-07-08T03:04:20;17.40;99.90
43581;DHT22;29175;51.030;4.606;2023-07-08T03:06:49;17.40;99.90
43581;DHT22;29175;51.030;4.606;2023-07-08T03:09:15;17.60;99.90
43581;DHT22;29175;51.030;4.606;2023-07-08T03:11:41;17.50;99.90
43581;DHT22;29175;51.030;4.606;2023-07-08T03:14:07;17.40;99.90
43581;DHT22;29175;51.030;4.606;2023-07-08T03:16:33;17.50;99.90
43581;DHT22;29175;51.030;4.606;2023-07-08T03:18:58;17.40;99.90
43581;DHT22;29175;51.030;4.606;2023-07-08T03:21:24;17.40;99.90
43581;DHT22;29175;51.030;4.606;2023-07-08T03:23:51;17.50;99.90
43581;DHT22;29175;51.030;4.606;2023-07-08T03:26:19;17.40;99.90
43581;DHT22;29175;51.030;4.606;2023-07-08T03:28:47;17.20;99.90
43581;DHT22;29175;51.030;4.606;2023-07-08T03:31:13;17.20;99.90
43581;DHT22;29175;51.030;4.606;2023-07-08T03:33:39;17.20;99.90
43581;DHT22;29175;51.030;4.606;2023-07-08T03:36:07;17.10;99.90
43581;DHT22;29175;51.030;4.606;2023-07-08T03:38:38;17.20;99.90
43581;DHT22;29175;51.030;4.606;2023-07-08T03:41:04;17.40;99.90
43581;DHT22;29175;51.030;4.606;2023-07-08T03:43:30;17.60;99.90
43581;DHT22;29175;51.030;4.606;2023-07-08T03:45:56;17.50;99.90
43581;DHT22;29175;51.030;4.606;2023-07-08T03:48:21;17.40;99.90
43581;DHT22;29175;51.030;4.606;2023-07-08T03:50:47;17.20;99.90
43581;DHT22;29175;51.030;4.606;2023-07-08T03:53:13;17.10;99.90
43581;DHT22;29175;51.030;4.606;2023-07-08T03:55:40;17.10;99.90
43581;DHT22;29175;51.030;4.606;2023-07-08T03:58:06;17.20;99.90
43581;DHT22;29175;51.030;4.606;2023-07-08T04:00:31;17.30;99.90
43581;DHT22;29175;51.030;4.606;2023-07-08T04:02:57;17.40;99.90
43581;DHT22;29175;51.030;4.606;2023-07-08T04:05:23;17.40;99.90
43581;DHT22;29175;51.030;4.606;2023-07-08T04:07:49;17.20;99.90
43581;DHT22;29175;51.030;4.606;2023-07-08T04:10:15;17.30;99.90
43581;DHT22;29175;51.030;4.606;2023-07-08T04:12:42;17.40;99.90
43581;DHT22;29175;51.030;4.606;2023-07-08T04:15:09;17.40;99.90
43581;DHT22;29175;51.030;4.606;2023-07-08T04:17:40;17.50;99.90
43581;DHT22;29175;51.030;4.606;2023-07-08T04:20:08;17.50;99.90
43581;DHT22;29175;51.030;4.606;2023-07-08T04:22:36;17.50;99.90
43581;DHT22;29175;51.030;4.606;2023-07-08T04:25:03;17.50;99.90
43581;DHT22;29175;51.030;4.606;2023-07-08T04:27:29;17.50;99.90
43581;DHT22;29175;51.030;4.606;2023-07-08T04:29:55;17.70;99.90
43581;DHT22;29175;51.030;4.606;2023-07-08T04:32:21;17.70;99.90
43581;DHT22;29175;51.030;4.606;2023-07-08T04:34:52;17.60;99.90
43581;DHT22;29175;51.030;4.606;2023-07-08T04:37:18;17.50;99.90
43581;DHT22;29175;51.030;4.606;2023-07-08T04:39:45;17.60;99.90
43581;DHT22;29175;51.030;4.606;2023-07-08T04:42:11;17.60;99.90
43581;DHT22;29175;51.030;4.606;2023-07-08T04:44:41;17.80;99.90
43581;DHT22;29175;51.030;4.606;2023-07-08T04:47:07;17.80;99.90
43581;DHT22;29175;51.030;4.606;2023-07-08T04:49:34;17.80;99.90
43581;DHT22;29175;51.030;4.606;2023-07-08T04:52:01;17.90;99.90
43581;DHT22;29175;51.030;4.606;2023-07-08T04:54:28;17.90;99.90
43581;DHT22;29175;51.030;4.606;2023-07-08T04:56:54;18.00;99.90
43581;DHT22;29175;51.030;4.606;2023-07-08T04:59:24;18.10;99.90
43581;DHT22;29175;51.030;4.606;2023-07-08T05:01:51;18.20;99.90
43581;DHT22;29175;51.030;4.606;2023-07-08T05:04:19;18.20;99.90
43581;DHT22;29175;51.030;4.606;2023-07-08T05:06:48;18.30;99.90
43581;DHT22;29175;51.030;4.606;2023-07-08T05:09:14;18.60;99.90
43581;DHT22;29175;51.030;4.606;2023-07-08T05:11:40;18.80;99.90
43581;DHT22;29175;51.030;4.606;2023-07-08T05:14:06;18.90;99.90
43581;DHT22;29175;51.030;4.606;2023-07-08T05:16:34;19.00;99.90
43581;DHT22;29175;51.030;4.606;2023-07-08T05:19:01;19.30;99.90
43581;DHT22;29175;51.030;4.606;2023-07-08T05:21:29;19.30;99.90
43581;DHT22;29175;51.030;4.606;2023-07-08T05:23:59;19.50;99.90
43581;DHT22;29175;51.030;4.606;2023-07-08T05:26:25;19.50;99.90
43581;DHT22;29175;51.030;4.606;2023-07-08T05:28:50;19.40;99.90
43581;DHT22;29175;51.030;4.606;2023-07-08T05:31:16;19.30;99.90
43581;DHT22;29175;51.030;4.606;2023-07-08T05:33:42;19.30;99.90
43581;DHT22;29175;51.030;4.606;2023-07-08T05:36:08;19.50;99.90
43581;DHT22;29175;51.030;4.606;2023-07-08T05:38:33;19.70;99.90
43581;DHT22;29175;51.030;4.606;2023-07-08T05:40:59;19.90;99.90
43581;DHT22;29175;51.030;4.606;2023-07-08T05:43:25;20.00;99.90
43581;DHT22;29175;51.030;4.606;2023-07-08T05:45:52;20.00;99.90
43581;DHT22;29175;51.030;4.606;2023-07-08T05:48:17;20.00;99.90
43581;DHT22;29175;51.030;4.606;2023-07-08T05:50:45;20.10;99.90
43581;DHT22;29175;51.030;4.606;2023-07-08T05:53:11;20.20;99.90
43581;DHT22;29175;51.030;4.606;2023-07-08T05:55:37;20.30;99.90
43581;DHT22;29175;51.030;4.606;2023-07-08T05:58:03;20.20;99.90
43581;DHT22;29175;51.030;4.606;2023-07-08T06:00:29;20.30;99.90
43581;DHT22;29175;51.030;4.606;2023-07-08T06:02:55;20.50;99.90
43581;DHT22;29175;51.030;4.606;2023-07-08T06:05:20;20.50;99.90
43581;DHT22;29175;51.030;4.606;2023-07-08T06:07:46;20.50;99.90
43581;DHT22;29175;51.030;4.606;2023-07-08T06:10:12;20.60;99.90
43581;DHT22;29175;51.030;4.606;2023-07-08T06:12:37;20.80;99.90
43581;DHT22;29175;51.030;4.606;2023-07-08T06:15:03;20.80;99.90
43581;DHT22;29175;51.030;4.606;2023-07-08T06:17:29;20.90;99.90
43581;DHT22;29175;51.030;4.606;2023-07-08T06:19:55;21.00;99.90
43581;DHT22;29175;51.030;4.606;2023-07-08T06:22:20;21.10;99.90
43581;DHT22;29175;51.030;4.606;2023-07-08T06:24:46;21.30;99.90
43581;DHT22;29175;51.030;4.606;2023-07-08T06:27:13;21.40;99.90
43581;DHT22;29175;51.030;4.606;2023-07-08T06:29:39;21.50;99.90
43581;DHT22;29175;51.030;4.606;2023-07-08T06:32:05;21.80;99.90
43581;DHT22;29175;51.030;4.606;2023-07-08T06:34:30;22.00;99.90
43581;DHT22;29175;51.030;4.606;2023-07-08T06:36:56;22.30;99.90
43581;DHT22;29175;51.030;4.606;2023-07-08T06:39:22;22.50;99.90
43581;DHT22;29175;51.030;4.606;2023-07-08T06:41:47;22.80;99.60
43581;DHT22;29175;51.030;4.606;2023-07-08T06:44:13;23.80;97.80
43581;DHT22;29175;51.030;4.606;2023-07-08T06:46:39;25.60;95.20
43581;DHT22;29175;51.030;4.606;2023-07-08T06:49:04;27.40;92.70
43581;DHT22;29175;51.030;4.606;2023-07-08T06:51:34;28.90;91.20
43581;DHT22;29175;51.030;4.606;2023-07-08T06:53:59;29.80;87.10
43581;DHT22;29175;51.030;4.606;2023-07-08T06:56:30;30.80;84.40
43581;DHT22;29175;51.030;4.606;2023-07-08T06:58:55;32.00;82.70
43581;DHT22;29175;51.030;4.606;2023-07-08T07:01:21;32.80;81.80
43581;DHT22;29175;51.030;4.606;2023-07-08T07:03:47;33.10;80.40
43581;DHT22;29175;51.030;4.606;2023-07-08T07:06:12;33.40;80.70
43581;DHT22;29175;51.030;4.606;2023-07-08T07:08:38;32.90;77.50
43581;DHT22;29175;51.030;4.606;2023-07-08T07:11:03;34.00;77.90
43581;DHT22;29175;51.030;4.606;2023-07-08T07:13:29;35.50;76.80
43581;DHT22;29175;51.030;4.606;2023-07-08T07:15:55;36.30;75.80
43581;DHT22;29175;51.030;4.606;2023-07-08T07:18:20;36.60;74.40
43581;DHT22;29175;51.030;4.606;2023-07-08T07:20:49;36.30;72.30
43581;DHT22;29175;51.030;4.606;2023-07-08T07:23:15;37.30;73.10
43581;DHT22;29175;51.030;4.606;2023-07-08T07:25:41;38.00;72.00
43581;DHT22;29175;51.030;4.606;2023-07-08T07:28:06;38.60;70.80
43581;DHT22;29175;51.030;4.606;2023-07-08T07:30:32;38.30;69.40
43581;DHT22;29175;51.030;4.606;2023-07-08T07:33:01;37.30;69.10
43581;DHT22;29175;51.030;4.606;2023-07-08T07:35:27;37.50;69.70
43581;DHT22;29175;51.030;4.606;2023-07-08T07:37:53;38.10;68.70
43581;DHT22;29175;51.030;4.606;2023-07-08T07:40:18;38.50;68.50
43581;DHT22;29175;51.030;4.606;2023-07-08T07:42:45;38.90;65.40
43581;DHT22;29175;51.030;4.606;2023-07-08T07:45:12;39.30;66.50
43581;DHT22;29175;51.030;4.606;2023-07-08T07:47:38;38.40;67.10
43581;DHT22;29175;51.030;4.606;2023-07-08T07:50:06;38.50;68.60
43581;DHT22;29175;51.030;4.606;2023-07-08T07:52:32;39.50;67.60
43581;DHT22;29175;51.030;4.606;2023-07-08T07:54:58;39.90;64.20
43581;DHT22;29175;51.030;4.606;2023-07-08T07:57:24;41.20;63.90
43581;DHT22;29175;51.030;4.606;2023-07-08T07:59:50;41.40;60.60
43581;DHT22;29175;51.030;4.606;2023-07-08T08:02:17;42.20;61.60
43581;DHT22;29175;51.030;4.606;2023-07-08T08:04:42;40.80;58.70
43581;DHT22;29175;51.030;4.606;2023-07-08T08:07:08;40.80;61.70
43581;DHT22;29175;51.030;4.606;2023-07-08T08:09:35;41.60;60.90
43581;DHT22;29175;51.030;4.606;2023-07-08T08:12:03;43.00;60.90
43581;DHT22;29175;51.030;4.606;2023-07-08T08:14:29;43.00;57.50
43581;DHT22;29175;51.030;4.606;2023-07-08T08:16:55;42.70;57.90
43581;DHT22;29175;51.030;4.606;2023-07-08T08:19:20;43.00;57.60
43581;DHT22;29175;51.030;4.606;2023-07-08T08:21:46;42.50;58.60
43581;DHT22;29175;51.030;4.606;2023-07-08T08:24:12;42.30;60.60
43581;DHT22;29175;51.030;4.606;2023-07-08T08:26:38;42.60;59.60
43581;DHT22;29175;51.030;4.606;2023-07-08T08:29:04;43.10;59.70
43581;DHT22;29175;51.030;4.606;2023-07-08T08:31:29;42.40;59.10
43581;DHT22;29175;51.030;4.606;2023-07-08T08:33:56;42.30;58.70
43581;DHT22;29175;51.030;4.606;2023-07-08T08:36:22;42.90;59.60
43581;DHT22;29175;51.030;4.606;2023-07-08T08:38:48;42.90;59.00
43581;DHT22;29175;51.030;4.606;2023-07-08T08:41:17;43.50;58.30
43581;DHT22;29175;51.030;4.606;2023-07-08T08:43:44;44.80;58.20
43581;DHT22;29175;51.030;4.606;2023-07-08T08:51:20;43.00;58.60
43581;DHT22;29175;51.030;4.606;2023-07-08T08:53:46;44.20;57.40
43581;DHT22;29175;51.030;4.606;2023-07-08T08:56:21;44.40;56.30
43581;DHT22;29175;51.030;4.606;2023-07-08T08:58:59;46.30;54.00
43581;DHT22;29175;51.030;4.606;2023-07-08T09:01:28;46.60;53.70
43581;DHT22;29175;51.030;4.606;2023-07-08T09:04:02;46.20;54.10
43581;DHT22;29175;51.030;4.606;2023-07-08T09:06:31;47.20;53.40
43581;DHT22;29175;51.030;4.606;2023-07-08T09:09:02;47.00;52.70
43581;DHT22;29175;51.030;4.606;2023-07-08T09:11:40;45.80;53.20
43581;DHT22;29175;51.030;4.606;2023-07-08T09:14:27;44.70;54.50
43581;DHT22;29175;51.030;4.606;2023-07-08T09:16:58;44.70;53.40
43581;DHT22;29175;51.030;4.606;2023-07-08T09:19:37;45.20;52.80
43581;DHT22;29175;51.030;4.606;2023-07-08T09:24:53;47.10;53.10
43581;DHT22;29175;51.030;4.606;2023-07-08T09:27:20;48.10;51.70
43581;DHT22;29175;51.030;4.606;2023-07-08T09:29:46;48.90;50.90
43581;DHT22;29175;51.030;4.606;2023-07-08T09:32:20;47.90;49.10
43581;DHT22;29175;51.030;4.606;2023-07-08T09:34:51;47.60;50.00
43581;DHT22;29175;51.030;4.606;2023-07-08T09:37:26;46.60;50.70
43581;DHT22;29175;51.030;4.606;2023-07-08T09:39:54;47.40;49.60
43581;DHT22;29175;51.030;4.606;2023-07-08T09:42:22;49.20;49.60
43581;DHT22;29175;51.030;4.606;2023-07-08T09:44:57;50.20;50.00
43581;DHT22;29175;51.030;4.606;2023-07-08T09:47:27;49.20;49.60
43581;DHT22;29175;51.030;4.606;2023-07-08T09:49:59;49.80;47.90
43581;DHT22;29175;51.030;4.606;2023-07-08T09:52:25;51.40;48.10
43581;DHT22;29175;51.030;4.606;2023-07-08T09:54:53;51.20;48.00
43581;DHT22;29175;51.030;4.606;2023-07-08T09:57:22;51.20;47.90
43581;DHT22;29175;51.030;4.606;2023-07-08T09:59:56;51.50;48.00
43581;DHT22;29175;51.030;4.606;2023-07-08T10:02:27;50.80;47.70
43581;DHT22;29175;51.030;4.606;2023-07-08T10:04:56;50.80;48.00
43581;DHT22;29175;51.030;4.606;2023-07-08T10:07:22;51.00;48.30
43581;DHT22;29175;51.030;4.606;2023-07-08T10:09:53;51.10;47.00
43581;DHT22;29175;51.030;4.606;2023-07-08T10:12:22;50.70;46.70
43581;DHT22;29175;51.030;4.606;2023-07-08T10:14:52;50.30;47.60
43581;DHT22;29175;51.030;4.606;2023-07-08T10:17:20;50.60;46.30
43581;DHT22;29175;51.030;4.606;2023-07-08T10:19:47;51.40;48.00
43581;DHT22;29175;51.030;4.606;2023-07-08T10:25:06;51.70;47.00
43581;DHT22;29175;51.030;4.606;2023-07-08T10:28:04;52.30;46.10
43581;DHT22;29175;51.030;4.606;2023-07-08T10:30:53;51.30;46.00
43581;DHT22;29175;51.030;4.606;2023-07-08T10:36:19;51.40;46.60
43581;DHT22;29175;51.030;4.606;2023-07-08T10:44:31;49.00;46.50
43581;DHT22;29175;51.030;4.606;2023-07-08T10:47:12;49.40;46.90
43581;DHT22;29175;51.030;4.606;2023-07-08T10:49:50;49.10;47.30
43581;DHT22;29175;51.030;4.606;2023-07-08T10:52:28;49.70;47.70
43581;DHT22;29175;51.030;4.606;2023-07-08T10:55:46;49.50;46.80
43581;DHT22;29175;51.030;4.606;2023-07-08T10:58:13;49.30;45.50
43581;DHT22;29175;51.030;4.606;2023-07-08T11:06:41;50.10;45.60
43581;DHT22;29175;51.030;4.606;2023-07-08T11:09:13;50.20;45.60
43581;DHT22;29175;51.030;4.606;2023-07-08T11:14:48;50.30;45.00
43581;DHT22;29175;51.030;4.606;2023-07-08T11:17:33;49.80;45.90
43581;DHT22;29175;51.030;4.606;2023-07-08T11:20:12;49.60;46.60
43581;DHT22;29175;51.030;4.606;2023-07-08T11:25:40;49.00;45.70
43581;DHT22;29175;51.030;4.606;2023-07-08T11:28:12;49.40;46.60
43581;DHT22;29175;51.030;4.606;2023-07-08T11:30:40;48.80;46.70
43581;DHT22;29175;51.030;4.606;2023-07-08T11:33:11;48.50;48.10
43581;DHT22;29175;51.030;4.606;2023-07-08T11:35:49;48.20;46.90
43581;DHT22;29175;51.030;4.606;2023-07-08T11:38:20;46.80;47.70
43581;DHT22;29175;51.030;4.606;2023-07-08T11:41:00;47.40;47.50
43581;DHT22;29175;51.030;4.606;2023-07-08T11:43:51;48.00;46.60
43581;DHT22;29175;51.030;4.606;2023-07-08T11:46:23;48.00;46.50
43581;DHT22;29175;51.030;4.606;2023-07-08T11:48:55;47.70;46.40
43581;DHT22;29175;51.030;4.606;2023-07-08T11:51:38;47.80;46.90
43581;DHT22;29175;51.030;4.606;2023-07-08T11:54:28;48.00;47.30
43581;DHT22;29175;51.030;4.606;2023-07-08T11:56:59;48.00;47.80
43581;DHT22;29175;51.030;4.606;2023-07-08T11:59:30;47.10;49.20
43581;DHT22;29175;51.030;4.606;2023-07-08T12:02:23;46.30;49.40
43581;DHT22;29175;51.030;4.606;2023-07-08T12:05:01;45.80;49.20
43581;DHT22;29175;51.030;4.606;2023-07-08T12:07:33;44.50;49.60
43581;DHT22;29175;51.030;4.606;2023-07-08T12:12:41;42.20;53.90
43581;DHT22;29175;51.030;4.606;2023-07-08T12:15:25;41.60;53.20
43581;DHT22;29175;51.030;4.606;2023-07-08T12:17:53;40.50;54.50
43581;DHT22;29175;51.030;4.606;2023-07-08T12:20:52;39.50;55.20
43581;DHT22;29175;51.030;4.606;2023-07-08T12:23:21;38.70;56.40
43581;DHT22;29175;51.030;4.606;2023-07-08T12:25:48;37.90;56.50
43581;DHT22;29175;51.030;4.606;2023-07-08T12:28:14;37.60;59.00
43581;DHT22;29175;51.030;4.606;2023-07-08T12:30:42;37.20;57.10
43581;DHT22;29175;51.030;4.606;2023-07-08T12:33:14;37.10;58.20
43581;DHT22;29175;51.030;4.606;2023-07-08T12:35:42;37.20;59.20
43581;DHT22;29175;51.030;4.606;2023-07-08T12:38:27;36.70;58.90
43581;DHT22;29175;51.030;4.606;2023-07-08T12:40:58;36.20;61.40
43581;DHT22;29175;51.030;4.606;2023-07-08T12:43:25;35.90;61.60
43581;DHT22;29175;51.030;4.606;2023-07-08T12:45:51;36.00;60.90
43581;DHT22;29175;51.030;4.606;2023-07-08T12:48:17;36.00;61.80
43581;DHT22;29175;51.030;4.606;2023-07-08T12:50:42;36.30;62.50
43581;DHT22;29175;51.030;4.606;2023-07-08T12:53:10;36.60;62.60
43581;DHT22;29175;51.030;4.606;2023-07-08T12:55:38;36.60;60.90
43581;DHT22;29175;51.030;4.606;2023-07-08T12:58:05;36.40;61.90
43581;DHT22;29175;51.030;4.606;2023-07-08T13:00:34;36.20;64.20
43581;DHT22;29175;51.030;4.606;2023-07-08T13:03:08;36.30;63.40
43581;DHT22;29175;51.030;4.606;2023-07-08T13:05:38;36.30;62.40
43581;DHT22;29175;51.030;4.606;2023-07-08T13:08:04;36.30;63.90
43581;DHT22;29175;51.030;4.606;2023-07-08T13:10:31;36.00;63.20
43581;DHT22;29175;51.030;4.606;2023-07-08T13:13:03;36.10;63.30
43581;DHT22;29175;51.030;4.606;2023-07-08T13:15:36;36.50;64.60
43581;DHT22;29175;51.030;4.606;2023-07-08T13:18:07;36.50;63.20
43581;DHT22;29175;51.030;4.606;2023-07-08T13:20:38;36.70;64.20
43581;DHT22;29175;51.030;4.606;2023-07-08T13:23:04;36.30;66.40
43581;DHT22;29175;51.030;4.606;2023-07-08T13:25:31;35.30;68.10
43581;DHT22;29175;51.030;4.606;2023-07-08T13:28:12;34.60;66.30
43581;DHT22;29175;51.030;4.606;2023-07-08T13:30:59;33.70;68.10
43581;DHT22;29175;51.030;4.606;2023-07-08T13:33:30;32.60;69.20
43581;DHT22;29175;51.030;4.606;2023-07-08T13:35:56;32.20;70.40
43581;DHT22;29175;51.030;4.606;2023-07-08T13:38:24;31.90;70.40
43581;DHT22;29175;51.030;4.606;2023-07-08T13:40:56;31.60;71.20
43581;DHT22;29175;51.030;4.606;2023-07-08T13:43:27;31.40;70.40
43581;DHT22;29175;51.030;4.606;2023-07-08T13:45:54;31.20;69.80
43581;DHT22;29175;51.030;4.606;2023-07-08T13:51:09;30.60;70.20
43581;DHT22;29175;51.030;4.606;2023-07-08T13:56:30;30.50;70.10
43581;DHT22;29175;51.030;4.606;2023-07-08T13:59:16;30.40;71.00
43581;DHT22;29175;51.030;4.606;2023-07-08T14:01:43;30.30;72.60
43581;DHT22;29175;51.030;4.606;2023-07-08T14:04:12;30.10;75.40
43581;DHT22;29175;51.030;4.606;2023-07-08T14:06:40;29.90;77.80
43581;DHT22;29175;51.030;4.606;2023-07-08T14:09:20;29.70;78.10
43581;DHT22;29175;51.030;4.606;2023-07-08T14:11:47;29.50;81.10
43581;DHT22;29175;51.030;4.606;2023-07-08T14:14:13;29.30;78.90
43581;DHT22;29175;51.030;4.606;2023-07-08T14:16:51;29.40;80.70
43581;DHT22;29175;51.030;4.606;2023-07-08T14:19:35;29.30;85.20
43581;DHT22;29175;51.030;4.606;2023-07-08T14:24:42;29.10;84.50
43581;DHT22;29175;51.030;4.606;2023-07-08T14:27:09;29.10;90.00
43581;DHT22;29175;51.030;4.606;2023-07-08T14:29:40;28.90;90.50
43581;DHT22;29175;51.030;4.606;2023-07-08T14:35:07;28.70;90.30
43581;DHT22;29175;51.030;4.606;2023-07-08T14:37:34;28.60;92.50
43581;DHT22;29175;51.030;4.606;2023-07-08T14:40:00;28.80;93.00
43581;DHT22;29175;51.030;4.606;2023-07-08T14:42:27;29.30;92.70
43581;DHT22;29175;51.030;4.606;2023-07-08T14:44:53;29.80;92.60
43581;DHT22;29175;51.030;4.606;2023-07-08T14:47:19;30.20;91.70
43581;DHT22;29175;51.030;4.606;2023-07-08T14:49:46;30.70;91.40
43581;DHT22;29175;51.030;4.606;2023-07-08T14:52:11;31.40;81.20
43581;DHT22;29175;51.030;4.606;2023-07-08T14:54:38;31.60;90.20
43581;DHT22;29175;51.030;4.606;2023-07-08T14:57:04;31.80;91.00
43581;DHT22;29175;51.030;4.606;2023-07-08T14:59:32;32.20;90.50
43581;DHT22;29175;51.030;4.606;2023-07-08T15:01:59;32.40;90.20
43581;DHT22;29175;51.030;4.606;2023-07-08T15:04:25;32.10;86.90
43581;DHT22;29175;51.030;4.606;2023-07-08T15:06:54;32.40;91.00
43581;DHT22;29175;51.030;4.606;2023-07-08T15:09:22;32.70;90.20
43581;DHT22;29175;51.030;4.606;2023-07-08T15:11:48;32.90;87.30
43581;DHT22;29175;51.030;4.606;2023-07-08T15:14:21;32.80;83.90
43581;DHT22;29175;51.030;4.606;2023-07-08T15:16:48;33.10;82.90
43581;DHT22;29175;51.030;4.606;2023-07-08T15:19:14;33.20;83.00
43581;DHT22;29175;51.030;4.606;2023-07-08T15:21:40;33.50;84.10
43581;DHT22;29175;51.030;4.606;2023-07-08T15:24:12;33.50;85.00
43581;DHT22;29175;51.030;4.606;2023-07-08T15:26:43;33.40;86.00
43581;DHT22;29175;51.030;4.606;2023-07-08T15:29:21;33.30;81.50
43581;DHT22;29175;51.030;4.606;2023-07-08T15:31:47;33.30;76.80
43581;DHT22;29175;51.030;4.606;2023-07-08T15:34:19;33.10;69.50
43581;DHT22;29175;51.030;4.606;2023-07-08T15:36:46;33.10;74.90
43581;DHT22;29175;51.030;4.606;2023-07-08T15:39:11;32.80;72.70
43581;DHT22;29175;51.030;4.606;2023-07-08T15:41:39;32.80;71.60
43581;DHT22;29175;51.030;4.606;2023-07-08T15:44:10;32.80;75.10
43581;DHT22;29175;51.030;4.606;2023-07-08T15:46:47;32.70;71.60
43581;DHT22;29175;51.030;4.606;2023-07-08T15:49:22;32.70;73.40
43581;DHT22;29175;51.030;4.606;2023-07-08T15:51:49;32.70;72.50
43581;DHT22;29175;51.030;4.606;2023-07-08T15:54:16;32.70;73.60
43581;DHT22;29175;51.030;4.606;2023-07-08T15:56:42;32.60;76.30
43581;DHT22;29175;51.030;4.606;2023-07-08T15:59:12;32.70;77.70
43581;DHT22;29175;51.030;4.606;2023-07-08T16:01:39;32.80;79.50
43581;DHT22;29175;51.030;4.606;2023-07-08T16:04:18;32.80;78.10
43581;DHT22;29175;51.030;4.606;2023-07-08T16:06:44;32.70;77.10
43581;DHT22;29175;51.030;4.606;2023-07-08T16:09:10;32.50;77.30
43581;DHT22;29175;51.030;4.606;2023-07-08T16:11:35;32.40;74.90
43581;DHT22;29175;51.030;4.606;2023-07-08T16:14:02;32.30;76.70
43581;DHT22;29175;51.030;4.606;2023-07-08T16:16:28;32.10;76.60
43581;DHT22;29175;51.030;4.606;2023-07-08T16:18:54;32.10;77.40
43581;DHT22;29175;51.030;4.606;2023-07-08T16:21:20;32.00;75.70
43581;DHT22;29175;51.030;4.606;2023-07-08T16:23:46;32.10;75.80
43581;DHT22;29175;51.030;4.606;2023-07-08T16:26:15;32.00;77.60
43581;DHT22;29175;51.030;4.606;2023-07-08T16:28:42;32.00;78.50